Time;durP1;ratioP1;P1;durP2;ratioP2;P2;SDS_P1;SDS_P2;PMS_P1;PMS_P2;Temp;Humidity;BMP_temperature;BMP_pressure;BME280_temperature;BME280_humidity;BME280_pressure;Samples;Min_cycle;Max_cycle;Signal;HPM_P1;HPM_P2
2023/09/19 00:00:12;;;;;;;2.97;1.90;;;19.80;99.90;;;;;;5025293;28;20215;-67
2023/09/19 00:02:39;;;;;;;2.40;1.97;;;19.70;99.90;;;;;;5025338;28;20197;-68
2023/09/19 00:05:07;;;;;;;3.57;2.10;;;19.70;99.90;;;;;;5025091;28;20322;-68
2023/09/19 00:07:36;;;;;;;1.80;1.70;;;19.80;99.90;;;;;;5025302;28;20209;-68
2023/09/19 00:10:04;;;;;;;3.87;2.03;;;19.90;99.90;;;;;;5025325;28;20239;-68
2023/09/19 00:12:31;;;;;;;2.67;1.87;;;19.90;99.90;;;;;;5025278;28;20209;-68
2023/09/19 00:15:00;;;;;;;4.03;2.03;;;19.90;99.90;;;;;;5024508;28;20213;-68
2023/09/19 00:17:30;;;;;;;3.73;2.20;;;19.90;99.90;;;;;;5024852;28;20753;-68
2023/09/19 00:19:57;;;;;;;3.87;2.10;;;20.00;99.90;;;;;;5024784;28;20648;-68
2023/09/19 00:22:25;;;;;;;3.57;1.87;;;19.80;99.90;;;;;;5024686;28;20299;-68
2023/09/19 00:24:52;;;;;;;2.93;2.10;;;19.90;99.90;;;;;;5024344;28;20239;-67
2023/09/19 00:27:19;;;;;;;4.07;2.00;;;19.90;99.90;;;;;;5024495;28;20200;-68
2023/09/19 00:29:46;;;;;;;4.50;2.20;;;19.90;99.90;;;;;;5024473;28;20292;-67
2023/09/19 00:32:13;;;;;;;2.13;1.93;;;20.00;99.90;;;;;;5024694;28;20228;-67
2023/09/19 00:34:42;;;;;;;3.00;2.20;;;20.00;99.90;;;;;;5024433;28;20208;-68
2023/09/19 00:37:11;;;;;;;1.87;1.77;;;19.70;99.90;;;;;;5025074;28;20632;-68
2023/09/19 00:39:38;;;;;;;3.40;1.93;;;19.80;99.90;;;;;;5024556;28;20212;-67
2023/09/19 00:42:05;;;;;;;3.77;1.90;;;19.80;99.90;;;;;;5024231;28;20197;-67
2023/09/19 00:44:34;;;;;;;2.43;1.93;;;19.90;99.90;;;;;;5024482;28;20344;-67
2023/09/19 00:47:02;;;;;;;4.53;2.00;;;19.80;99.90;;;;;;5024632;28;20223;-68
2023/09/19 00:49:30;;;;;;;2.83;1.90;;;19.80;99.90;;;;;;5024223;28;20212;-67
2023/09/19 00:51:59;;;;;;;2.40;2.20;;;19.70;99.90;;;;;;5024365;28;20240;-68
2023/09/19 00:54:28;;;;;;;2.80;2.17;;;19.70;99.90;;;;;;5023839;28;20789;-67
2023/09/19 00:56:55;;;;;;;3.73;2.00;;;19.70;99.90;;;;;;5024366;28;20278;-68
2023/09/19 00:59:22;;;;;;;2.93;1.63;;;19.80;99.90;;;;;;5023798;28;20209;-68
2023/09/19 01:01:53;;;;;;;2.03;1.87;;;19.80;99.90;;;;;;5024078;28;20223;-68
2023/09/19 01:04:20;;;;;;;3.40;1.87;;;19.80;99.90;;;;;;5023872;28;20189;-68
2023/09/19 01:06:52;;;;;;;1.97;1.87;;;19.90;99.90;;;;;;5023917;28;20291;-68
2023/09/19 01:09:21;;;;;;;4.77;2.20;;;19.90;99.90;;;;;;5023890;28;20621;-68
2023/09/19 01:11:51;;;;;;;7.10;1.87;;;19.90;99.90;;;;;;5023770;28;20201;-68
2023/09/19 01:14:35;;;;;;;2.53;1.97;;;19.70;99.90;;;;;;5024064;28;20283;-68
2023/09/19 01:17:08;;;;;;;2.17;1.97;;;19.60;99.90;;;;;;5024392;28;20196;-68
2023/09/19 01:20:05;;;;;;;3.37;2.00;;;19.70;99.90;;;;;;5024272;28;20704;-68
2023/09/19 01:22:41;;;;;;;2.40;2.20;;;19.70;99.90;;;;;;5017526;28;20734;-68
2023/09/19 01:25:34;;;;;;;2.30;2.10;;;19.60;99.90;;;;;;5024348;28;20307;-68
2023/09/19 01:28:22;;;;;;;2.73;1.80;;;19.40;99.90;;;;;;5023023;28;20224;-67
2023/09/19 01:30:57;;;;;;;3.77;1.90;;;19.40;99.90;;;;;;5024074;28;20418;-68
2023/09/19 01:33:25;;;;;;;2.53;1.93;;;19.40;99.90;;;;;;5024134;28;20200;-68
2023/09/19 01:35:57;;;;;;;2.30;1.90;;;19.30;99.90;;;;;;5024236;28;20311;-69
2023/09/19 01:38:24;;;;;;;2.67;1.93;;;19.30;99.90;;;;;;5024441;28;20647;-68
2023/09/19 01:41:03;;;;;;;3.63;1.70;;;19.10;99.90;;;;;;5027743;28;20213;-68
2023/09/19 01:43:35;;;;;;;3.70;2.00;;;19.00;99.90;;;;;;5027761;28;20209;-68
2023/09/19 01:46:10;;;;;;;4.53;1.93;;;18.90;99.90;;;;;;5027565;28;20627;-68
2023/09/19 01:48:47;;;;;;;2.00;1.80;;;18.90;99.90;;;;;;5027626;28;20536;-69
2023/09/19 01:51:22;;;;;;;3.87;1.97;;;18.80;99.90;;;;;;5027629;28;20229;-68
2023/09/19 01:53:56;;;;;;;2.83;2.27;;;18.90;99.90;;;;;;5024888;28;20278;-68
2023/09/19 01:56:30;;;;;;;2.93;1.90;;;18.90;99.90;;;;;;5027538;28;20201;-68
2023/09/19 01:59:00;;;;;;;1.93;1.63;;;18.90;99.90;;;;;;5027559;28;20275;-67
2023/09/19 02:01:29;;;;;;;1.90;1.80;;;19.00;99.90;;;;;;5027167;28;20372;-67
2023/09/19 02:03:57;;;;;;;1.93;1.80;;;18.90;99.90;;;;;;5027777;28;20315;-67
2023/09/19 02:06:25;;;;;;;3.07;1.67;;;18.80;99.90;;;;;;5026870;28;20605;-68
2023/09/19 02:08:52;;;;;;;3.40;2.20;;;18.90;99.90;;;;;;5027466;28;20240;-68
2023/09/19 02:11:18;;;;;;;2.57;2.00;;;18.80;99.90;;;;;;5027131;28;20232;-67
2023/09/19 02:13:46;;;;;;;1.70;1.60;;;18.80;99.90;;;;;;5026998;28;20857;-67
2023/09/19 02:16:13;;;;;;;1.93;1.50;;;18.70;99.90;;;;;;5026933;28;20209;-68
2023/09/19 02:18:41;;;;;;;1.83;1.73;;;18.60;99.90;;;;;;5026983;28;20216;-66
2023/09/19 02:21:09;;;;;;;4.63;2.20;;;18.60;99.90;;;;;;5026706;28;20209;-68
2023/09/19 02:23:36;;;;;;;2.97;2.03;;;18.60;99.90;;;;;;5026690;28;20213;-68
2023/09/19 02:26:04;;;;;;;2.13;1.83;;;18.60;99.90;;;;;;5026560;28;20691;-68
2023/09/19 02:28:31;;;;;;;2.07;1.60;;;18.50;99.90;;;;;;5026482;28;20217;-67
2023/09/19 02:30:59;;;;;;;2.37;1.90;;;18.50;99.90;;;;;;5026662;28;20725;-67
2023/09/19 02:33:32;;;;;;;2.40;2.20;;;18.40;99.90;;;;;;5024751;28;20319;-67
2023/09/19 02:36:03;;;;;;;3.27;1.90;;;18.40;99.90;;;;;;5025220;28;20201;-67
2023/09/19 02:38:31;;;;;;;3.73;1.80;;;18.40;99.90;;;;;;5024664;28;21108;-67
2023/09/19 02:40:59;;;;;;;3.27;1.80;;;18.40;99.90;;;;;;5025073;28;20287;-66
2023/09/19 02:43:26;;;;;;;2.50;1.73;;;18.40;99.90;;;;;;5019373;28;20215;-67
2023/09/19 02:45:54;;;;;;;4.33;2.00;;;18.40;99.90;;;;;;5024278;28;20702;-67
2023/09/19 02:48:21;;;;;;;2.73;1.90;;;18.50;99.90;;;;;;5024979;28;20224;-67
2023/09/19 02:50:51;;;;;;;7.07;2.00;;;18.50;99.90;;;;;;5025372;28;20225;-67
2023/09/19 02:53:19;;;;;;;1.90;1.80;;;18.50;99.90;;;;;;5024667;28;20232;-67
2023/09/19 02:55:48;;;;;;;2.07;1.80;;;18.50;99.90;;;;;;5024535;28;20675;-68
2023/09/19 02:58:15;;;;;;;2.57;1.87;;;18.50;99.90;;;;;;5024020;28;20201;-67
2023/09/19 03:00:47;;;;;;;2.90;1.90;;;18.50;99.90;;;;;;5023848;28;20216;-67
2023/09/19 03:03:15;;;;;;;2.13;1.53;;;18.50;99.90;;;;;;5024149;28;20213;-67
2023/09/19 03:05:46;;;;;;;2.40;1.80;;;18.50;99.90;;;;;;5024192;28;20233;-67
2023/09/19 03:08:15;;;;;;;2.83;1.67;;;18.40;99.90;;;;;;5013291;28;20197;-67
2023/09/19 03:10:43;;;;;;;1.67;1.57;;;18.40;99.90;;;;;;5025888;28;20254;-67
2023/09/19 03:13:10;;;;;;;1.57;1.47;;;18.30;99.90;;;;;;5024082;28;20763;-68
2023/09/19 03:15:38;;;;;;;2.23;1.60;;;18.30;99.90;;;;;;5024547;28;20264;-68
2023/09/19 03:18:06;;;;;;;1.40;1.30;;;18.20;99.90;;;;;;5025449;28;20220;-68
2023/09/19 03:20:32;;;;;;;1.70;1.60;;;18.20;99.90;;;;;;5025180;28;20233;-68
2023/09/19 03:23:00;;;;;;;2.43;1.87;;;18.10;99.90;;;;;;5024842;28;20215;-68
2023/09/19 03:25:28;;;;;;;2.80;1.17;;;18.10;99.90;;;;;;5024830;28;20229;-68
2023/09/19 03:27:59;;;;;;;2.13;1.30;;;18.10;99.90;;;;;;5025004;28;20631;-68
2023/09/19 03:30:26;;;;;;;2.87;1.47;;;18.10;99.90;;;;;;5025103;28;20204;-68
2023/09/19 03:32:53;;;;;;;1.53;1.10;;;18.00;99.90;;;;;;5025676;28;20204;-68
2023/09/19 03:35:20;;;;;;;3.63;1.33;;;18.00;99.90;;;;;;5025538;28;20213;-68
2023/09/19 03:37:47;;;;;;;2.20;1.67;;;18.00;99.90;;;;;;5025167;28;20215;-68
2023/09/19 03:40:14;;;;;;;1.43;1.33;;;18.10;99.90;;;;;;5025191;28;20952;-68
2023/09/19 03:42:41;;;;;;;2.10;1.23;;;18.00;99.90;;;;;;5025581;28;20216;-68
2023/09/19 03:45:12;;;;;;;1.17;1.07;;;18.00;99.90;;;;;;5025567;28;20927;-68
2023/09/19 03:47:40;;;;;;;1.40;1.23;;;18.00;99.90;;;;;;5025581;28;20632;-68
2023/09/19 03:50:10;;;;;;;1.47;1.30;;;18.00;99.90;;;;;;5025419;28;20303;-68
2023/09/19 03:52:37;;;;;;;1.67;1.20;;;18.00;99.90;;;;;;5024685;28;20244;-68
2023/09/19 03:55:05;;;;;;;1.93;1.13;;;18.00;99.90;;;;;;5025325;28;20282;-68
2023/09/19 03:57:32;;;;;;;2.10;1.33;;;18.00;99.90;;;;;;5024994;28;20746;-68
2023/09/19 03:59:59;;;;;;;2.53;1.03;;;17.90;99.90;;;;;;5024290;28;20307;-68
2023/09/19 04:02:32;;;;;;;3.37;1.40;;;17.90;99.90;;;;;;5024524;28;20634;-68
2023/09/19 04:05:00;;;;;;;2.03;1.50;;;17.80;99.90;;;;;;5025010;28;20685;-68
2023/09/19 04:07:28;;;;;;;1.10;1.00;;;17.80;99.90;;;;;;5010242;28;20711;-68
2023/09/19 04:09:56;;;;;;;3.70;1.23;;;17.80;99.90;;;;;;5005366;28;20363;-68
2023/09/19 04:12:23;;;;;;;1.47;1.03;;;17.80;99.90;;;;;;5005226;28;20221;-68
2023/09/19 04:14:50;;;;;;;1.53;1.43;;;17.70;99.90;;;;;;5024541;28;20271;-68
2023/09/19 04:17:17;;;;;;;2.27;1.50;;;17.70;99.90;;;;;;5024667;28;20301;-68
2023/09/19 04:19:45;;;;;;;1.93;1.53;;;17.70;99.90;;;;;;5025126;28;20291;-68
2023/09/19 04:22:12;;;;;;;1.27;1.20;;;17.60;99.90;;;;;;5025107;28;20243;-68
2023/09/19 04:24:39;;;;;;;1.30;1.20;;;17.60;99.90;;;;;;5025177;28;20205;-68
2023/09/19 04:27:07;;;;;;;1.47;1.30;;;17.60;99.90;;;;;;5025024;28;20229;-68
2023/09/19 04:29:34;;;;;;;2.47;1.73;;;17.60;99.90;;;;;;5024602;28;20299;-68
2023/09/19 04:32:04;;;;;;;1.33;1.23;;;17.60;99.90;;;;;;5024472;28;20299;-68
2023/09/19 04:34:31;;;;;;;3.43;1.60;;;17.50;99.90;;;;;;5024530;28;20585;-68
2023/09/19 04:37:00;;;;;;;1.80;1.30;;;17.50;99.90;;;;;;5024563;28;20204;-68
2023/09/19 04:39:27;;;;;;;2.77;1.33;;;17.50;99.90;;;;;;5024196;28;20216;-68
2023/09/19 04:41:54;;;;;;;1.47;1.40;;;17.40;99.90;;;;;;5024593;28;20215;-68
2023/09/19 04:44:21;;;;;;;2.70;1.20;;;17.40;99.90;;;;;;5024134;28;20240;-68
2023/09/19 04:46:48;;;;;;;2.37;1.30;;;17.30;99.90;;;;;;5024627;28;20318;-68
2023/09/19 04:49:18;;;;;;;1.97;1.40;;;17.40;99.90;;;;;;5024639;28;20219;-68
2023/09/19 04:51:46;;;;;;;2.63;1.20;;;17.40;99.90;;;;;;5024682;28;20232;-68
2023/09/19 04:54:15;;;;;;;2.33;1.30;;;17.30;99.90;;;;;;5024351;28;20237;-68
2023/09/19 04:56:41;;;;;;;1.43;1.27;;;17.30;99.90;;;;;;5024298;28;20327;-68
2023/09/19 04:59:10;;;;;;;2.57;1.50;;;17.30;99.90;;;;;;5024349;28;20307;-68
2023/09/19 05:01:37;;;;;;;1.40;1.30;;;17.30;99.90;;;;;;5024290;28;20737;-68
2023/09/19 05:04:05;;;;;;;3.70;1.40;;;17.20;99.90;;;;;;5024741;28;20209;-68
2023/09/19 05:06:35;;;;;;;2.27;1.27;;;17.20;99.90;;;;;;5017673;28;20332;-68
2023/09/19 05:09:05;;;;;;;2.50;1.30;;;17.20;99.90;;;;;;5020294;28;20231;-68
2023/09/19 05:11:33;;;;;;;3.63;1.40;;;17.20;99.90;;;;;;5024229;28;20304;-68
2023/09/19 05:14:03;;;;;;;1.27;1.17;;;17.20;99.90;;;;;;5026013;28;20213;-68
2023/09/19 05:16:31;;;;;;;2.30;1.50;;;17.20;99.90;;;;;;5028481;28;20208;-68
2023/09/19 05:18:59;;;;;;;2.07;1.23;;;17.20;99.90;;;;;;5027890;28;20741;-68
2023/09/19 05:21:28;;;;;;;2.63;1.57;;;17.20;99.90;;;;;;5027956;28;20220;-68
2023/09/19 05:23:55;;;;;;;2.00;1.47;;;17.30;99.90;;;;;;5027755;28;21040;-68
2023/09/19 05:26:22;;;;;;;3.13;1.47;;;17.20;99.90;;;;;;5028173;28;20327;-68
2023/09/19 05:28:50;;;;;;;2.40;1.70;;;17.20;99.90;;;;;;5028306;28;20315;-68
2023/09/19 05:31:17;;;;;;;3.63;1.73;;;17.10;99.90;;;;;;5027795;28;20263;-67
2023/09/19 05:33:44;;;;;;;1.60;1.50;;;17.10;99.90;;;;;;5027523;28;20240;-68
2023/09/19 05:36:11;;;;;;;1.40;1.30;;;17.10;99.90;;;;;;5027794;28;20220;-68
2023/09/19 05:38:40;;;;;;;2.07;1.57;;;17.00;99.90;;;;;;5027916;28;20304;-67
2023/09/19 05:41:08;;;;;;;1.50;1.40;;;17.10;99.90;;;;;;5027824;28;20213;-68
2023/09/19 05:43:37;;;;;;;1.70;1.40;;;17.00;99.90;;;;;;5027638;28;20444;-68
2023/09/19 05:46:05;;;;;;;1.60;1.50;;;17.00;99.90;;;;;;5027760;28;20263;-68
2023/09/19 05:48:32;;;;;;;1.63;1.53;;;17.00;99.90;;;;;;5027767;28;20312;-68
2023/09/19 05:51:00;;;;;;;1.30;1.20;;;17.20;99.90;;;;;;5027399;28;20287;-67
2023/09/19 05:53:28;;;;;;;3.03;1.57;;;17.10;99.90;;;;;;5027074;28;20240;-68
2023/09/19 05:55:55;;;;;;;1.37;1.27;;;17.00;99.90;;;;;;5027440;28;20209;-68
2023/09/19 05:58:22;;;;;;;2.23;1.60;;;17.00;99.90;;;;;;5027454;28;20309;-68
2023/09/19 06:00:49;;;;;;;2.53;1.53;;;17.10;99.90;;;;;;5026831;28;20204;-68
2023/09/19 06:03:18;;;;;;;2.67;1.40;;;17.10;99.90;;;;;;5027331;28;20239;-68
2023/09/19 06:05:46;;;;;;;1.50;1.40;;;17.10;99.90;;;;;;5026800;28;20204;-68
2023/09/19 06:08:13;;;;;;;1.60;1.50;;;17.00;99.90;;;;;;5027186;28;20320;-68
2023/09/19 06:10:40;;;;;;;2.60;1.60;;;17.00;99.90;;;;;;5026889;28;20212;-68
2023/09/19 06:13:09;;;;;;;1.90;1.40;;;17.10;99.90;;;;;;5027503;28;20213;-68
2023/09/19 06:15:36;;;;;;;1.47;1.37;;;17.10;99.90;;;;;;5026815;28;20209;-68
2023/09/19 06:18:04;;;;;;;3.30;1.43;;;17.10;99.90;;;;;;5027269;28;20648;-68
2023/09/19 06:20:33;;;;;;;3.83;1.57;;;17.10;99.90;;;;;;5026557;28;20980;-68
2023/09/19 06:23:01;;;;;;;3.77;1.70;;;17.20;99.90;;;;;;5027037;28;20237;-68
2023/09/19 06:25:28;;;;;;;2.00;1.50;;;17.30;99.90;;;;;;5026217;28;20212;-68
2023/09/19 06:27:56;;;;;;;1.57;1.30;;;17.20;99.90;;;;;;5026706;28;20327;-68
2023/09/19 06:30:24;;;;;;;2.57;1.77;;;17.30;99.90;;;;;;5026361;28;20307;-68
2023/09/19 06:32:57;;;;;;;2.30;1.73;;;17.30;99.90;;;;;;5026969;28;20212;-68
2023/09/19 06:35:26;;;;;;;3.33;1.73;;;17.40;99.90;;;;;;5027024;28;20294;-68
2023/09/19 06:37:54;;;;;;;3.40;1.70;;;17.50;99.90;;;;;;5026715;28;20683;-68
2023/09/19 06:40:22;;;;;;;2.13;1.60;;;17.60;99.90;;;;;;5026215;28;20312;-68
2023/09/19 06:42:52;;;;;;;4.33;2.03;;;17.70;99.90;;;;;;5026704;28;20325;-68
2023/09/19 06:45:21;;;;;;;3.13;1.43;;;17.70;99.90;;;;;;5026823;28;20315;-68
2023/09/19 06:47:50;;;;;;;3.53;1.90;;;17.80;99.90;;;;;;5020826;28;20244;-68
2023/09/19 06:50:18;;;;;;;4.47;1.67;;;17.90;99.90;;;;;;5007052;28;20336;-68
2023/09/19 06:52:49;;;;;;;4.27;2.23;;;18.00;99.90;;;;;;5006647;28;20711;-68
2023/09/19 06:55:19;;;;;;;3.63;1.83;;;18.00;99.90;;;;;;5006832;28;20198;-68
2023/09/19 06:57:46;;;;;;;3.23;2.60;;;18.10;99.90;;;;;;5006647;28;20206;-69
2023/09/19 07:00:18;;;;;;;2.27;1.50;;;18.20;99.90;;;;;;5006707;28;20303;-68
2023/09/19 07:02:45;;;;;;;3.47;1.97;;;18.30;99.90;;;;;;5006753;28;20197;-68
2023/09/19 07:05:12;;;;;;;3.47;2.00;;;18.40;99.90;;;;;;5006837;28;20300;-68
2023/09/19 07:07:39;;;;;;;2.10;2.00;;;18.40;99.90;;;;;;5006474;28;20232;-68
2023/09/19 07:10:08;;;;;;;3.93;2.00;;;18.40;99.90;;;;;;5011362;28;20208;-68
2023/09/19 07:12:36;;;;;;;3.00;1.80;;;18.50;99.90;;;;;;5026643;28;20232;-68
2023/09/19 07:15:03;;;;;;;3.60;2.00;;;18.40;99.90;;;;;;5026633;28;20270;-68
2023/09/19 07:17:30;;;;;;;2.60;2.00;;;18.40;99.90;;;;;;5026571;28;20204;-68
2023/09/19 07:19:58;;;;;;;4.00;2.10;;;18.30;99.90;;;;;;5026110;28;20290;-68
2023/09/19 07:22:26;;;;;;;6.27;2.30;;;18.40;99.90;;;;;;5026089;28;20213;-68
2023/09/19 07:24:53;;;;;;;3.70;1.90;;;18.40;99.90;;;;;;5026454;28;20295;-69
2023/09/19 07:27:20;;;;;;;3.73;2.33;;;18.30;99.90;;;;;;5026157;28;20361;-68
2023/09/19 07:29:48;;;;;;;4.00;2.10;;;18.30;99.90;;;;;;5025984;28;20240;-68
2023/09/19 07:32:17;;;;;;;4.50;2.20;;;18.40;99.90;;;;;;5025948;28;20295;-68
2023/09/19 07:34:45;;;;;;;2.30;2.10;;;18.40;99.90;;;;;;5026044;28;20669;-68
2023/09/19 07:37:13;;;;;;;3.60;2.40;;;18.30;99.90;;;;;;5025359;28;20227;-68
2023/09/19 07:39:41;;;;;;;3.60;2.50;;;18.20;99.90;;;;;;5025832;28;20291;-68
2023/09/19 07:42:11;;;;;;;3.07;2.37;;;18.20;99.90;;;;;;5025454;28;20251;-68
2023/09/19 07:44:38;;;;;;;4.07;2.17;;;18.20;99.90;;;;;;5024961;28;20582;-69
2023/09/19 07:47:06;;;;;;;2.53;2.17;;;18.30;99.90;;;;;;5025175;28;20697;-68
2023/09/19 07:49:34;;;;;;;2.33;2.10;;;18.40;99.90;;;;;;5025609;28;20777;-68
2023/09/19 07:52:01;;;;;;;3.93;2.70;;;18.50;99.90;;;;;;5025009;28;20275;-68
2023/09/19 07:54:30;;;;;;;3.93;2.37;;;18.60;99.90;;;;;;5024852;28;20252;-68
2023/09/19 07:56:58;;;;;;;3.67;2.00;;;18.60;99.90;;;;;;5025387;28;20223;-69
2023/09/19 07:59:25;;;;;;;4.37;2.30;;;18.50;99.90;;;;;;5024984;28;20666;-68
2023/09/19 08:01:52;;;;;;;2.40;1.90;;;18.40;99.90;;;;;;5025129;28;20304;-68
2023/09/19 08:04:20;;;;;;;3.83;2.17;;;18.40;99.90;;;;;;5025102;28;20369;-68
2023/09/19 08:06:47;;;;;;;3.23;2.13;;;18.40;99.90;;;;;;5023728;28;20220;-68
2023/09/19 08:09:20;;;;;;;3.67;2.10;;;18.30;99.90;;;;;;5024741;28;20201;-68
2023/09/19 08:11:47;;;;;;;4.10;2.13;;;18.20;99.90;;;;;;5024916;28;20200;-68
2023/09/19 08:14:15;;;;;;;6.00;2.30;;;18.20;99.90;;;;;;5024477;28;20300;-68
2023/09/19 08:16:42;;;;;;;5.10;2.17;;;18.10;99.90;;;;;;5024956;28;20219;-68
2023/09/19 08:19:11;;;;;;;2.60;2.03;;;18.00;99.90;;;;;;5024813;28;20231;-68
2023/09/19 08:21:39;;;;;;;3.00;2.30;;;18.00;99.90;;;;;;5025056;28;20215;-68
2023/09/19 08:24:07;;;;;;;5.07;2.43;;;18.10;99.90;;;;;;5024847;28;20217;-68
2023/09/19 08:26:34;;;;;;;5.47;2.50;;;18.00;99.90;;;;;;5024498;28;20208;-68
2023/09/19 08:29:04;;;;;;;7.03;2.20;;;18.10;99.90;;;;;;5024445;28;20236;-68
2023/09/19 08:31:31;;;;;;;7.63;2.80;;;18.20;99.90;;;;;;5024458;28;20948;-68
2023/09/19 08:33:58;;;;;;;4.00;2.30;;;18.20;99.90;;;;;;5024645;28;20758;-68
2023/09/19 08:36:25;;;;;;;6.80;3.00;;;18.20;99.90;;;;;;5024359;28;20725;-68
2023/09/19 08:38:53;;;;;;;6.50;2.70;;;18.20;99.90;;;;;;5024563;28;20303;-68
2023/09/19 08:41:20;;;;;;;4.20;2.10;;;18.20;99.90;;;;;;5024149;28;20244;-68
2023/09/19 08:43:47;;;;;;;2.93;2.40;;;18.20;99.90;;;;;;5024222;28;20702;-68
2023/09/19 08:46:16;;;;;;;4.10;2.57;;;18.30;99.90;;;;;;5024310;28;20220;-68
2023/09/19 08:48:48;;;;;;;6.57;2.50;;;18.40;99.90;;;;;;5029491;28;20323;-68
2023/09/19 08:51:19;;;;;;;2.50;2.30;;;18.40;99.90;;;;;;5031745;28;20236;-69
2023/09/19 08:54:00;;;;;;;5.13;2.50;;;18.40;99.90;;;;;;5031203;28;20275;-68
2023/09/19 08:56:29;;;;;;;3.37;2.20;;;18.40;99.90;;;;;;5030751;28;20708;-68
2023/09/19 08:59:01;;;;;;;4.97;2.40;;;18.30;99.90;;;;;;5031125;28;20237;-68
2023/09/19 09:01:29;;;;;;;3.20;2.33;;;18.40;99.90;;;;;;5030804;28;20196;-68
2023/09/19 09:03:57;;;;;;;4.20;2.37;;;18.50;99.90;;;;;;5031402;28;20294;-68
2023/09/19 09:06:25;;;;;;;6.77;2.70;;;18.70;99.90;;;;;;5025026;28;20213;-68
2023/09/19 09:08:54;;;;;;;4.07;2.53;;;18.80;99.90;;;;;;5011367;28;20324;-69
2023/09/19 09:11:24;;;;;;;3.87;2.60;;;18.80;99.90;;;;;;5011082;28;20263;-68
2023/09/19 09:13:51;;;;;;;3.10;2.13;;;18.80;99.90;;;;;;5022415;28;20557;-68
2023/09/19 09:16:18;;;;;;;4.53;2.43;;;19.10;99.90;;;;;;5030737;28;20204;-68
2023/09/19 09:18:45;;;;;;;5.67;2.60;;;19.30;99.90;;;;;;5030672;28;20208;-68
2023/09/19 09:21:15;;;;;;;8.43;2.77;;;19.50;99.90;;;;;;5030718;28;20291;-68
2023/09/19 09:23:42;;;;;;;4.50;2.60;;;19.60;99.90;;;;;;5030425;28;20204;-68
2023/09/19 09:26:10;;;;;;;5.63;2.53;;;19.60;99.90;;;;;;5030791;28;20753;-68
2023/09/19 09:28:46;;;;;;;5.30;2.80;;;19.50;99.90;;;;;;5030067;28;20238;-68
2023/09/19 09:31:24;;;;;;;5.03;2.23;;;19.40;99.90;;;;;;5030593;28;20367;-68
2023/09/19 09:33:55;;;;;;;5.93;2.73;;;19.20;99.90;;;;;;5030730;28;20197;-69
2023/09/19 09:36:36;;;;;;;4.93;2.50;;;19.00;99.90;;;;;;5030142;28;20552;-68
2023/09/19 09:39:15;;;;;;;3.17;2.43;;;19.00;99.90;;;;;;5030844;28;20279;-68
2023/09/19 09:41:44;;;;;;;3.70;2.60;;;19.10;99.90;;;;;;5030808;28;20659;-68
2023/09/19 09:44:17;;;;;;;5.40;2.67;;;19.20;99.90;;;;;;5030807;28;20263;-69
2023/09/19 09:47:27;;;;;;;5.93;2.50;;;19.40;99.90;;;;;;5030724;28;20211;-68
2023/09/19 09:49:54;;;;;;;3.63;2.47;;;19.50;99.90;;;;;;5030714;28;20228;-68
2023/09/19 09:52:24;;;;;;;6.40;2.80;;;19.80;99.90;;;;;;5030492;28;20228;-68
2023/09/19 09:55:01;;;;;;;5.57;2.67;;;20.00;99.90;;;;;;5030362;28;20659;-68
2023/09/19 09:57:30;;;;;;;3.80;2.50;;;20.20;99.90;;;;;;5030524;28;20200;-68
2023/09/19 09:59:59;;;;;;;6.63;2.80;;;20.10;99.90;;;;;;5027851;28;20239;-69
2023/09/19 10:02:32;;;;;;;4.17;2.77;;;20.00;99.90;;;;;;5026878;28;20209;-68
2023/09/19 10:05:09;;;;;;;5.13;2.37;;;20.20;99.90;;;;;;5027547;28;20193;-68
2023/09/19 10:07:40;;;;;;;7.00;2.93;;;20.30;99.90;;;;;;5027044;28;20239;-68
2023/09/19 10:10:15;;;;;;;6.00;2.73;;;20.30;99.90;;;;;;5027499;28;20197;-68
2023/09/19 10:12:48;;;;;;;4.70;2.83;;;20.40;99.90;;;;;;5027276;28;20201;-68
2023/09/19 10:15:20;;;;;;;4.40;2.50;;;20.20;99.90;;;;;;5027293;28;20256;-69
2023/09/19 10:17:47;;;;;;;5.20;2.23;;;20.20;99.90;;;;;;5027128;28;20615;-68
2023/09/19 10:20:33;;;;;;;6.77;3.00;;;20.40;99.90;;;;;;5027081;28;20304;-69
2023/09/19 10:23:01;;;;;;;6.47;2.70;;;20.50;99.90;;;;;;5027089;28;20193;-69
2023/09/19 10:25:30;;;;;;;7.57;2.60;;;20.70;99.90;;;;;;5026905;28;20209;-69
2023/09/19 10:28:02;;;;;;;4.27;2.47;;;20.60;99.90;;;;;;5026864;28;20594;-69
2023/09/19 10:30:32;;;;;;;6.20;2.60;;;20.50;99.90;;;;;;5026781;28;20717;-69
2023/09/19 10:33:02;;;;;;;4.97;2.40;;;20.50;99.90;;;;;;5026729;28;20329;-69
2023/09/19 10:35:29;;;;;;;4.57;2.53;;;20.30;99.90;;;;;;5027046;28;20818;-69
2023/09/19 10:38:01;;;;;;;3.40;2.37;;;20.40;99.90;;;;;;5027027;28;20299;-69
2023/09/19 10:40:31;;;;;;;5.77;2.70;;;20.50;99.90;;;;;;5026816;28;20200;-69
2023/09/19 10:43:05;;;;;;;6.87;2.50;;;20.60;99.90;;;;;;5026888;28;20215;-69
2023/09/19 10:45:32;;;;;;;4.90;2.23;;;20.80;99.90;;;;;;5026343;28;20243;-69
2023/09/19 10:48:00;;;;;;;4.97;2.40;;;20.90;99.90;;;;;;5026711;28;20314;-68
2023/09/19 10:50:28;;;;;;;5.13;2.60;;;20.70;99.90;;;;;;5026181;28;20229;-69
2023/09/19 10:53:00;;;;;;;3.33;2.20;;;20.70;99.90;;;;;;5026364;28;20233;-69
2023/09/19 10:55:30;;;;;;;4.70;2.47;;;20.70;99.90;;;;;;5026416;28;20193;-69
2023/09/19 10:58:03;;;;;;;4.07;2.27;;;20.60;99.90;;;;;;5026266;28;20217;-68
2023/09/19 11:00:51;;;;;;;4.20;2.43;;;20.70;99.90;;;;;;5026424;28;20274;-69
2023/09/19 11:03:21;;;;;;;5.10;2.47;;;20.70;99.90;;;;;;5025938;28;20200;-69
2023/09/19 11:06:10;;;;;;;6.90;2.40;;;20.80;99.90;;;;;;5025986;28;20208;-68
2023/09/19 11:09:22;;;;;;;5.23;2.50;;;20.90;99.90;;;;;;5025928;28;20220;-68
2023/09/19 11:11:57;;;;;;;4.17;2.10;;;21.20;99.90;;;;;;5024394;28;20204;-69
2023/09/19 11:14:44;;;;;;;3.00;2.20;;;21.00;99.90;;;;;;5025204;28;20212;-69
2023/09/19 11:17:46;;;;;;;3.20;2.27;;;21.20;99.90;;;;;;5026076;28;20196;-68
2023/09/19 11:20:41;;;;;;;2.70;2.00;;;21.40;99.90;;;;;;5026104;28;20240;-69
2023/09/19 11:23:24;;;;;;;5.57;2.17;;;21.70;99.90;;;;;;5025852;28;20197;-68
2023/09/19 11:25:53;;;;;;;4.43;2.27;;;21.60;99.90;;;;;;5024830;28;20208;-68
2023/09/19 11:28:31;;;;;;;5.03;1.83;;;21.60;99.90;;;;;;5025508;28;20236;-69
2023/09/19 11:30:59;;;;;;;7.40;1.80;;;21.70;99.50;;;;;;5005613;28;20790;-69
2023/09/19 11:33:33;;;;;;;3.67;2.07;;;21.40;99.00;;;;;;5005749;28;20312;-69
2023/09/19 11:36:03;;;;;;;4.20;2.10;;;21.50;99.40;;;;;;5006263;28;20212;-68
2023/09/19 11:39:08;;;;;;;4.70;2.17;;;21.50;99.20;;;;;;5005942;28;20224;-69
2023/09/19 11:41:39;;;;;;;3.15;2.20;;;21.50;99.40;;;;;;5005810;28;21071;-69
2023/09/19 11:44:38;;;;;;;5.78;1.73;;;21.80;99.70;;;;;;5018931;28;20683;-69
2023/09/19 11:47:06;;;;;;;3.13;1.80;;;21.70;99.40;;;;;;5025423;28;20217;-69
2023/09/19 11:49:36;;;;;;;9.20;2.53;;;21.50;99.60;;;;;;5025580;28;20287;-69
2023/09/19 11:52:08;;;;;;;4.57;2.10;;;21.50;99.20;;;;;;5024889;28;20204;-68
2023/09/19 11:54:39;;;;;;;6.70;2.13;;;21.50;99.20;;;;;;5024910;28;20923;-68
2023/09/19 11:57:08;;;;;;;3.38;1.77;;;21.50;99.30;;;;;;5024971;28;20201;-68
2023/09/19 11:59:40;;;;;;;4.20;1.97;;;21.60;99.50;;;;;;5024949;28;20567;-69
2023/09/19 12:02:08;;;;;;;3.67;2.17;;;21.60;99.20;;;;;;5025255;28;20280;-68
2023/09/19 12:04:38;;;;;;;5.67;2.30;;;21.80;99.70;;;;;;5025346;28;20217;-69
2023/09/19 12:07:10;;;;;;;8.00;2.17;;;21.50;99.00;;;;;;5013913;28;20209;-69
2023/09/19 12:09:40;;;;;;;4.93;1.65;;;21.60;99.20;;;;;;5005081;28;20260;-69
2023/09/19 12:12:09;;;;;;;4.63;2.42;;;21.60;99.30;;;;;;5005405;28;20517;-69
2023/09/19 12:14:36;;;;;;;3.17;2.20;;;21.50;98.60;;;;;;5022724;28;20219;-69
2023/09/19 12:17:03;;;;;;;6.25;1.73;;;21.70;98.60;;;;;;5024525;28;20707;-69
2023/09/19 12:19:30;;;;;;;2.63;1.60;;;21.80;98.20;;;;;;5024854;28;20255;-69
2023/09/19 12:22:04;;;;;;;3.47;1.67;;;21.70;98.40;;;;;;5024382;28;20291;-68
2023/09/19 12:24:31;;;;;;;7.23;2.30;;;21.70;98.30;;;;;;5024821;28;20284;-68
2023/09/19 12:27:04;;;;;;;3.30;1.83;;;21.70;98.60;;;;;;5023737;28;20650;-69
2023/09/19 12:29:32;;;;;;;4.57;2.07;;;22.00;98.50;;;;;;5024434;28;20690;-68
2023/09/19 12:32:03;;;;;;;3.80;1.85;;;22.20;98.50;;;;;;5024694;28;20618;-69
2023/09/19 12:34:34;;;;;;;5.53;1.95;;;21.80;97.60;;;;;;5024694;28;20196;-68
2023/09/19 12:37:11;;;;;;;1.73;1.63;;;21.70;97.80;;;;;;5024773;28;20219;-69
2023/09/19 12:39:43;;;;;;;6.22;1.58;;;21.80;98.10;;;;;;5024908;28;20279;-69
2023/09/19 12:42:13;;;;;;;3.23;1.70;;;21.90;98.20;;;;;;5025225;28;20271;-69
2023/09/19 12:44:44;;;;;;;2.20;1.70;;;21.90;98.10;;;;;;5025381;28;20327;-68
2023/09/19 12:47:19;;;;;;;3.60;1.73;;;21.90;98.10;;;;;;5024519;28;20196;-69
2023/09/19 12:50:13;;;;;;;2.63;1.77;;;21.80;98.40;;;;;;5024500;28;20694;-68
2023/09/19 12:52:43;;;;;;;4.00;1.83;;;21.50;97.90;;;;;;5024528;28;20611;-68
2023/09/19 12:55:22;;;;;;;6.67;1.83;;;21.40;98.30;;;;;;5024908;28;20220;-68
2023/09/19 12:58:03;;;;;;;3.77;1.73;;;21.30;98.60;;;;;;5024770;28;20193;-69
2023/09/19 13:00:35;;;;;;;3.87;1.70;;;21.20;98.70;;;;;;5024217;28;20197;-67
2023/09/19 13:03:22;;;;;;;3.40;2.30;;;21.20;98.90;;;;;;5024587;28;20217;-68